Aeroporto :
LOGIN :

Iscrizione | Disclaimer

   EN    FR    IT 

 










Sommario :    VFR   VFR Marginale   IFR   IFR Intensivo   IFR Molto Intensivo
Visibilità : 
Base nubi : 
>= 8 km
>= 3000ft
5 / 8 km
1000 / 3000 ft
1500m / 5 km
500 / 1000 ft
800 / 1500m
200 / 500 ft
< 800m
< 200 ft
Simboli :   Temporali  Nebbia  Neve Forte  Precipitazioni Forti  Vento > 20 kt
SIGMETs :   Varie  Temporali  Ghiacco  Turbolenza  Onda orograficha  Ceneri Vulcaniche






- Altitudine del aeroporto : 59 ft
- Codice IATA : TSF


LIPH - Treviso

ULTIMO METAR :
  • 251550Z 11005KT 3000 BR SCT025 12/09 Q1006

METARs OBSOLETI :
  • 251520Z 14005KT 3000 BR BKN025 12/09 Q1007
  • 251450Z 14007KT 3000 BR BKN025 12/10 Q1007
  • 251420Z 14006KT 4000 BR BKN025 13/10 Q1007
  • 251350Z 16004KT 130V190 6000 BKN025 13/09 Q1008
  • 251320Z VRB01KT 6000 FEW020 BKN040 14/09 Q1008

TAF TAF LIPH
Valido dal 25 a 12 ore il 26 a 12 ore UTC


251100Z 2512/2612 VRB04KT 4000 BR SCT015 BKN025
BECMG 2519/2521 1500
TEMPO 2600/2605 0400 FG BKN002
BECMG 2607/2609 25012KT 6000



MetMap, La meteo Aeronautica in un colpo d'occhio ! - Copyright ORBIFLY Dicembre 2007 - Disclaimer

ORBIFLY MET'MAP TEAM :

Programmazione e sviluppo : Alexandra Zaïnal
Concezione : Baudouin d'Aumeries
Aiuto per la programmazione : Marc-Olivier Méhu
Supporto tecnico e logistico : Manuel Goepfert
Aiuto per la traduzione : Arnaldo La Scala

Contatto : metmap@orbifly.com




FONTI E CREDITI :

   NOAA